KGNR

Greenville Airport

Maine, USA
METAR KGNR 162356Z AUTO 32011KT M11/M12 A2984 RMK AO1 SLP134 60002 T11061122 11083 21106 53028
Observed Flight Rules
Dec-16 @ 23:56 UTC (38 minutes ago)
Wind
320° at 11 knots
Temperatures Readings
Current -11°C / 12°F
Dewpoint -12°C / 10°F
Humidity 92%
Altimeter 29.84" Hg
Pressure 1013.4 hPa
Elevation 427
METAR KGNR 162356Z AUTO 32011KT M11/M12 A2984 RMK AO1 SLP134 60002 T11061122 11083 21106 53028
Observed Flight Rules
Dec-16 @ 23:56 UTC
(38 minutes ago)
Wind
320° at 11 knots
Temperature Dewpoint
-11°C / 12°F -12°C / 10°F
Humidity Altimeter Pressure
92% 29.84" Hg 1013.4 hPa